Terminal Aerodrome Forecast
Issued by NWS Spokane, WA

Home | Current Version | Previous Version | Text Only | Print | Product List | Glossary On
Versions: 1 2 3 4 5 6 7 8 9 10 11 12 13
000
FTUS46 KOTX 281125
TAFLWS
TAF
KLWS 281125Z 2812/2912 VRB02KT P6SM SCT090 SCT200
     FM282000 34006KT P6SM SCT060
     FM290300 12004KT P6SM FEW070 SCT250
     FM290900 13002KT P6SM BKN120 BKN200=

USA.gov is the U.S. government's official web portal to all federal, state and local government web resources and services.